createdAt,value
2022-12-03T00:01:01.672Z,-1.06
2022-12-03T00:03:29.563Z,-1.19
2022-12-03T00:05:56.684Z,-1.20
2022-12-03T00:08:23.629Z,-1.48
2022-12-03T00:10:50.529Z,-1.45
2022-12-03T00:13:17.434Z,-1.42
2022-12-03T00:15:44.471Z,-1.47
2022-12-03T00:18:11.475Z,-1.36
2022-12-03T00:20:38.394Z,-1.16
2022-12-03T00:23:05.552Z,-1.07
2022-12-03T00:25:32.522Z,-0.98
2022-12-03T00:27:59.502Z,-1.05
2022-12-03T00:30:26.439Z,-1.21
2022-12-03T00:32:53.353Z,-1.13
2022-12-03T00:35:21.427Z,-1.43
2022-12-03T00:37:48.439Z,-1.35
2022-12-03T00:40:15.505Z,-1.46
2022-12-03T00:42:42.461Z,-1.34
2022-12-03T00:45:09.959Z,-1.51
2022-12-03T00:47:36.886Z,-1.57
2022-12-03T00:50:05.386Z,-1.47
2022-12-03T00:52:32.351Z,-1.51
2022-12-03T00:54:59.256Z,-1.43
2022-12-03T00:57:26.192Z,-1.49
2022-12-03T00:59:53.105Z,-1.71
2022-12-03T01:02:20.091Z,-1.71
2022-12-03T01:04:47.163Z,-1.78
2022-12-03T01:07:14.509Z,-1.80
2022-12-03T01:09:41.408Z,-1.74
2022-12-03T01:12:08.309Z,-1.75
2022-12-03T01:14:35.273Z,-1.66
2022-12-03T01:17:02.185Z,-1.49
2022-12-03T01:19:29.289Z,-1.54
2022-12-03T01:21:56.301Z,-1.57
2022-12-03T01:24:23.222Z,-1.76
2022-12-03T01:26:50.221Z,-1.69
2022-12-03T01:29:17.248Z,-1.65
2022-12-03T01:32:02.928Z,-1.75
2022-12-03T01:34:29.997Z,-1.65
2022-12-03T01:36:57.202Z,-1.66
2022-12-03T01:39:24.418Z,-1.60
2022-12-03T01:41:53.183Z,-1.60
2022-12-03T01:44:27.391Z,-1.79
2022-12-03T01:46:56.754Z,-1.79
2022-12-03T01:49:56.836Z,-1.75
2022-12-03T01:52:29.151Z,-1.82
2022-12-03T01:55:00.391Z,-1.78
2022-12-03T01:57:41.029Z,-1.64
2022-12-03T02:00:19.435Z,-1.72
2022-12-03T02:02:50.288Z,-1.63
2022-12-03T02:05:21.204Z,-1.51
2022-12-03T02:07:48.853Z,-1.56
2022-12-03T02:10:20.067Z,-1.50
2022-12-03T02:13:03.020Z,-1.63
2022-12-03T02:15:30.483Z,-1.61
2022-12-03T02:17:57.828Z,-1.49
2022-12-03T02:20:24.868Z,-1.57
2022-12-03T02:23:03.977Z,-1.67
2022-12-03T02:25:34.694Z,-1.71
2022-12-03T02:28:03.670Z,-1.53
2022-12-03T02:30:32.262Z,-1.54
2022-12-03T02:32:59.768Z,-1.61
2022-12-03T02:35:31.665Z,-1.57
2022-12-03T02:38:19.917Z,-1.52
2022-12-03T02:40:49.721Z,-1.46
2022-12-03T02:43:20.456Z,-1.72
2022-12-03T02:45:52.022Z,-1.48
2022-12-03T02:48:34.728Z,-1.44
2022-12-03T02:51:05.987Z,-1.50
2022-12-03T02:53:45.081Z,-1.52
2022-12-03T02:56:17.002Z,-1.50
2022-12-03T02:58:47.071Z,-1.51
2022-12-03T03:01:15.555Z,-1.49
2022-12-03T03:03:43.668Z,-1.43
2022-12-03T03:06:11.073Z,-1.53
2022-12-03T03:08:39.264Z,-1.62
2022-12-03T03:11:06.384Z,-1.55
2022-12-03T03:13:35.416Z,-1.52
2022-12-03T03:16:04.733Z,-1.40
2022-12-03T03:18:33.684Z,-1.46
2022-12-03T03:21:00.901Z,-1.43
2022-12-03T03:23:27.959Z,-1.64
2022-12-03T03:26:05.928Z,-1.48
2022-12-03T03:28:38.319Z,-1.51
2022-12-03T03:31:08.237Z,-1.48
2022-12-03T03:33:36.492Z,-1.57
2022-12-03T03:36:03.609Z,-1.55
2022-12-03T03:38:31.898Z,-1.49
2022-12-03T03:41:00.540Z,-1.45
2022-12-03T03:43:28.729Z,-1.58
2022-12-03T03:45:56.244Z,-1.68
2022-12-03T03:48:23.586Z,-1.63
2022-12-03T03:50:51.969Z,-1.64
2022-12-03T03:53:20.761Z,-1.66
2022-12-03T03:55:48.181Z,-1.74
2022-12-03T03:58:15.175Z,-1.64
2022-12-03T04:00:46.395Z,-1.61
2022-12-03T04:03:13.460Z,-1.65
2022-12-03T04:05:40.773Z,-1.79
2022-12-03T04:08:07.789Z,-1.69
2022-12-03T04:10:53.296Z,-1.66
2022-12-03T04:13:20.238Z,-1.61
2022-12-03T04:15:47.140Z,-1.69
2022-12-03T04:18:32.661Z,-1.85
2022-12-03T04:21:19.857Z,-1.76
2022-12-03T04:23:46.801Z,-1.81
2022-12-03T04:26:32.451Z,-1.87
2022-12-03T04:28:59.482Z,-1.81
2022-12-03T04:31:45.443Z,-1.76
2022-12-03T04:34:30.890Z,-1.69
2022-12-03T04:36:57.862Z,-1.80
2022-12-03T04:39:24.934Z,-1.80
2022-12-03T04:41:51.930Z,-1.78
2022-12-03T04:44:36.350Z,-1.66
2022-12-03T04:47:20.537Z,-1.93
2022-12-03T04:49:50.482Z,-1.93
2022-12-03T04:52:20.610Z,-1.94
2022-12-03T04:54:47.847Z,-1.89
2022-12-03T04:57:14.850Z,-1.87
2022-12-03T04:59:41.771Z,-1.75
2022-12-03T05:02:09.001Z,-1.65
2022-12-03T05:04:36.038Z,-1.68
2022-12-03T05:07:03.492Z,-1.71
2022-12-03T05:09:30.443Z,-1.76
2022-12-03T05:11:57.383Z,-1.60
2022-12-03T05:14:24.307Z,-1.73
2022-12-03T05:16:51.339Z,-1.50
2022-12-03T05:19:18.412Z,-1.66
2022-12-03T05:21:45.386Z,-1.88
2022-12-03T05:24:12.279Z,-1.80
2022-12-03T05:26:39.212Z,-1.90
2022-12-03T05:29:06.165Z,-1.73
2022-12-03T05:31:33.070Z,-1.69
2022-12-03T05:34:00.084Z,-1.62
2022-12-03T05:36:27.048Z,-1.61
2022-12-03T05:38:53.995Z,-1.64
2022-12-03T05:41:39.511Z,-1.54
2022-12-03T05:44:06.489Z,-1.51
2022-12-03T05:46:33.795Z,-1.48
2022-12-03T05:49:01.020Z,-1.30
2022-12-03T05:51:28.239Z,-1.17
2022-12-03T05:53:55.165Z,-1.27
2022-12-03T05:56:22.098Z,-1.20
2022-12-03T05:58:48.997Z,-1.24
2022-12-03T06:01:16.086Z,-1.38
2022-12-03T06:03:43.118Z,-1.27
2022-12-03T06:06:10.101Z,-1.38
2022-12-03T06:08:36.994Z,-1.49
2022-12-03T06:11:04.104Z,-1.51
2022-12-03T06:13:31.006Z,-1.24
2022-12-03T06:15:58.064Z,-1.26
2022-12-03T06:18:25.046Z,-1.15
2022-12-03T06:20:51.978Z,-1.41
2022-12-03T06:23:18.999Z,-1.43
2022-12-03T06:25:45.962Z,-1.41
2022-12-03T06:28:12.941Z,-1.36
2022-12-03T06:30:40.117Z,-1.34
2022-12-03T06:33:07.043Z,-1.42
2022-12-03T06:35:33.951Z,-1.45
2022-12-03T06:38:00.946Z,-1.40
2022-12-03T06:40:27.956Z,-1.22
2022-12-03T06:42:54.910Z,-1.19
2022-12-03T06:45:21.907Z,-1.20
2022-12-03T06:47:48.873Z,-0.98
2022-12-03T06:50:15.975Z,-0.89
2022-12-03T06:52:42.882Z,-1.01
2022-12-03T06:55:10.128Z,-0.99
2022-12-03T06:57:37.103Z,-0.81
2022-12-03T07:00:08.880Z,-0.79
2022-12-03T07:02:36.527Z,-0.81
2022-12-03T07:05:04.014Z,-0.73
2022-12-03T07:07:31.060Z,-0.87
2022-12-03T07:09:58.094Z,-0.87
2022-12-03T07:12:25.034Z,-0.76
2022-12-03T07:14:52.415Z,-0.63
2022-12-03T07:17:19.690Z,-0.53
2022-12-03T07:19:46.688Z,-0.60
2022-12-03T07:22:13.679Z,-0.54
2022-12-03T07:24:40.701Z,-0.71
2022-12-03T07:27:07.799Z,-0.73
2022-12-03T07:29:34.770Z,-0.82
2022-12-03T07:32:01.679Z,-0.94
2022-12-03T07:34:28.656Z,-1.06
2022-12-03T07:36:55.619Z,-0.94
2022-12-03T07:39:22.610Z,-1.03
2022-12-03T07:41:49.811Z,-0.90
2022-12-03T07:44:16.774Z,-0.85
2022-12-03T07:46:43.886Z,-0.82
2022-12-03T07:49:12.255Z,-0.94
2022-12-03T07:51:39.350Z,-1.00
2022-12-03T07:54:06.342Z,-0.94
2022-12-03T07:56:33.359Z,-0.94
2022-12-03T07:59:00.350Z,-0.81
2022-12-03T08:01:27.386Z,-0.75
2022-12-03T08:03:54.464Z,-0.90
2022-12-03T08:06:21.386Z,-0.85
2022-12-03T08:08:48.335Z,-0.85
2022-12-03T08:11:15.794Z,-0.73
2022-12-03T08:13:43.396Z,-0.71
2022-12-03T08:16:22.100Z,-0.73
2022-12-03T08:18:51.246Z,-0.50
2022-12-03T08:21:20.994Z,-0.46
2022-12-03T08:23:48.386Z,-0.55
2022-12-03T08:26:25.626Z,-0.57
2022-12-03T08:28:53.764Z,-0.53
2022-12-03T08:31:32.891Z,-0.51
2022-12-03T08:34:18.845Z,-0.21
2022-12-03T08:36:47.651Z,-0.44
2022-12-03T08:39:33.764Z,-0.49
2022-12-03T08:42:44.179Z,-0.38
2022-12-03T08:45:32.877Z,-0.38
2022-12-03T08:48:05.819Z,-0.38
2022-12-03T08:50:41.306Z,-0.40
2022-12-03T08:53:14.221Z,-0.19
2022-12-03T08:55:55.016Z,0.08
2022-12-03T08:58:40.139Z,-0.14
2022-12-03T09:01:12.993Z,-0.05
2022-12-03T09:03:51.116Z,-0.12
2022-12-03T09:06:18.560Z,0.00
2022-12-03T09:08:45.501Z,-0.01
2022-12-03T09:11:12.950Z,0.01
2022-12-03T09:13:39.966Z,-0.13
2022-12-03T09:16:07.340Z,-0.03
2022-12-03T09:18:34.374Z,-0.03
2022-12-03T09:21:01.412Z,-0.04
2022-12-03T09:23:28.334Z,-0.12
2022-12-03T09:25:55.246Z,-0.05
2022-12-03T09:28:22.171Z,0.04
2022-12-03T09:30:49.073Z,0.04
2022-12-03T09:33:16.089Z,0.04
2022-12-03T09:35:43.074Z,-0.04
2022-12-03T09:38:10.014Z,0.27
2022-12-03T09:40:36.944Z,0.46
2022-12-03T09:43:04.549Z,0.54
2022-12-03T09:45:31.728Z,0.69
2022-12-03T09:48:01.162Z,0.58
2022-12-03T09:50:28.441Z,0.41
2022-12-03T09:53:00.328Z,0.54
2022-12-03T09:55:28.963Z,0.52
2022-12-03T09:57:57.816Z,0.54
2022-12-03T10:00:30.636Z,0.57
2022-12-03T10:03:02.907Z,0.60
2022-12-03T10:05:30.376Z,0.85
2022-12-03T10:08:18.149Z,0.93
2022-12-03T10:10:45.361Z,0.88
2022-12-03T10:13:25.275Z,1.02
2022-12-03T10:15:56.184Z,1.20
2022-12-03T10:18:32.729Z,1.09
2022-12-03T10:21:01.775Z,1.25
2022-12-03T10:23:31.184Z,1.45
2022-12-03T10:26:03.669Z,1.46
2022-12-03T10:28:37.245Z,1.76
2022-12-03T10:31:08.755Z,1.69
2022-12-03T10:33:39.235Z,1.69
2022-12-03T10:36:23.349Z,1.58
2022-12-03T10:39:16.471Z,1.24
2022-12-03T10:41:44.736Z,1.06
2022-12-03T10:44:25.528Z,0.97
2022-12-03T10:47:12.408Z,1.07
2022-12-03T10:49:41.544Z,1.06
2022-12-03T10:52:25.885Z,0.96
2022-12-03T10:54:53.528Z,1.08
2022-12-03T10:57:20.810Z,1.14
2022-12-03T10:59:47.759Z,0.96
2022-12-03T11:02:21.916Z,0.87
2022-12-03T11:04:50.379Z,0.94
2022-12-03T11:07:22.755Z,0.92
2022-12-03T11:09:54.699Z,0.97
2022-12-03T11:12:29.241Z,0.86
2022-12-03T11:14:56.775Z,0.78
2022-12-03T11:17:40.289Z,0.80
2022-12-03T11:20:25.672Z,0.83
2022-12-03T11:22:57.923Z,1.00
2022-12-03T11:25:28.010Z,0.91
2022-12-03T11:28:12.945Z,0.92
2022-12-03T11:30:49.200Z,1.02
2022-12-03T11:33:25.272Z,1.08
2022-12-03T11:36:04.180Z,1.23
2022-12-03T11:38:53.929Z,1.27
2022-12-03T11:41:33.504Z,1.13
2022-12-03T11:44:31.900Z,1.12
2022-12-03T11:47:00.517Z,1.04
2022-12-03T11:49:45.790Z,1.10
2022-12-03T11:52:27.170Z,1.06
2022-12-03T11:55:30.152Z,1.02
2022-12-03T11:58:06.005Z,1.28
2022-12-03T12:00:32.991Z,1.17
2022-12-03T12:03:00.013Z,1.20
2022-12-03T12:05:34.467Z,1.20
2022-12-03T12:08:03.430Z,1.24
2022-12-03T12:10:49.172Z,1.28
2022-12-03T12:13:31.012Z,1.30
2022-12-03T12:15:59.302Z,1.36
2022-12-03T12:18:44.930Z,1.51
2022-12-03T12:21:42.011Z,1.35
2022-12-03T12:25:01.251Z,1.27
2022-12-03T12:27:34.225Z,1.31
2022-12-03T12:30:15.499Z,1.38
2022-12-03T12:32:50.498Z,1.40
2022-12-03T12:35:32.543Z,1.40
2022-12-03T12:38:10.851Z,1.44
2022-12-03T12:40:40.764Z,1.32
2022-12-03T12:43:29.536Z,1.42
2022-12-03T12:46:18.754Z,1.45
2022-12-03T12:48:48.696Z,1.62
2022-12-03T12:51:18.894Z,1.66
2022-12-03T12:53:46.466Z,1.58
2022-12-03T12:56:44.989Z,1.76
2022-12-03T12:59:16.217Z,1.82
2022-12-03T13:01:45.847Z,1.61
2022-12-03T13:04:22.674Z,1.66
2022-12-03T13:06:52.906Z,1.63
2022-12-03T13:09:23.947Z,1.63
2022-12-03T13:11:58.126Z,1.76
2022-12-03T13:14:36.679Z,1.53
2022-12-03T13:17:19.624Z,1.47
2022-12-03T13:20:00.604Z,1.56
2022-12-03T13:22:30.718Z,1.61
2022-12-03T13:24:59.317Z,1.62
2022-12-03T13:27:30.026Z,1.65
2022-12-03T13:30:15.657Z,1.57
2022-12-03T13:32:43.531Z,1.57
2022-12-03T13:35:16.129Z,1.63
2022-12-03T13:37:43.233Z,1.62
2022-12-03T13:40:26.064Z,1.50
2022-12-03T13:42:54.296Z,1.51
2022-12-03T13:45:54.419Z,1.52
2022-12-03T13:48:31.865Z,1.59
2022-12-03T13:51:23.165Z,1.58
2022-12-03T13:53:50.200Z,1.54
2022-12-03T13:56:43.273Z,1.44
2022-12-03T13:59:10.269Z,1.58
2022-12-03T14:01:37.334Z,1.60
2022-12-03T14:04:04.706Z,1.64
2022-12-03T14:06:33.613Z,1.87
2022-12-03T14:09:00.755Z,1.70
2022-12-03T14:11:46.397Z,1.69
2022-12-03T14:14:13.502Z,1.76
2022-12-03T14:16:40.549Z,1.55
2022-12-03T14:19:07.756Z,1.52
2022-12-03T14:21:34.760Z,1.46
2022-12-03T14:24:01.702Z,1.54
2022-12-03T14:26:28.690Z,1.55
2022-12-03T14:28:55.614Z,1.73
2022-12-03T14:31:22.665Z,1.69
2022-12-03T14:33:49.668Z,1.72
2022-12-03T14:36:16.594Z,1.72
2022-12-03T14:38:43.523Z,1.64
2022-12-03T14:41:30.396Z,1.68
2022-12-03T14:43:57.367Z,1.76
2022-12-03T14:46:24.342Z,1.61
2022-12-03T14:48:51.288Z,1.59
2022-12-03T14:51:18.212Z,1.71
2022-12-03T14:53:45.183Z,1.77
2022-12-03T14:56:12.137Z,1.68
2022-12-03T14:58:39.114Z,1.74
2022-12-03T15:01:06.265Z,1.68
2022-12-03T15:03:33.298Z,1.73
2022-12-03T15:06:00.727Z,1.79
2022-12-03T15:08:30.404Z,1.69
2022-12-03T15:10:57.422Z,1.70
2022-12-03T15:13:24.373Z,1.78
2022-12-03T15:15:51.403Z,1.74
2022-12-03T15:18:18.678Z,1.66
2022-12-03T15:20:45.673Z,1.66
2022-12-03T15:23:14.549Z,1.86
2022-12-03T15:25:41.852Z,1.84
2022-12-03T15:28:08.999Z,1.90
2022-12-03T15:30:36.169Z,1.89
2022-12-03T15:33:04.154Z,1.83
2022-12-03T15:35:31.455Z,1.74
2022-12-03T15:37:58.637Z,1.84
2022-12-03T15:40:26.145Z,1.70
2022-12-03T15:42:53.223Z,1.63
2022-12-03T15:45:20.345Z,1.64
2022-12-03T15:47:47.310Z,1.71
2022-12-03T15:50:14.740Z,1.71
2022-12-03T15:52:41.764Z,1.74
2022-12-03T15:55:09.456Z,1.70
2022-12-03T15:57:36.422Z,1.78
2022-12-03T16:00:05.019Z,1.74
2022-12-03T16:02:35.630Z,1.84
2022-12-03T16:05:05.347Z,1.79
2022-12-03T16:07:32.420Z,1.84
2022-12-03T16:09:59.468Z,1.80
2022-12-03T16:12:26.382Z,1.85
2022-12-03T16:14:53.445Z,1.87
2022-12-03T16:17:20.624Z,1.96
2022-12-03T16:19:47.630Z,2.00
2022-12-03T16:22:15.052Z,1.91
2022-12-03T16:24:41.990Z,2.01
2022-12-03T16:27:09.021Z,1.95
2022-12-03T16:29:36.055Z,1.83
2022-12-03T16:32:03.407Z,1.85
2022-12-03T16:34:30.409Z,1.91
2022-12-03T16:36:57.339Z,1.88
2022-12-03T16:39:24.603Z,1.97
2022-12-03T16:41:51.703Z,1.92
2022-12-03T16:44:32.548Z,1.91
2022-12-03T16:47:01.449Z,1.83
2022-12-03T16:49:28.768Z,1.83
2022-12-03T16:51:55.700Z,1.93
2022-12-03T16:54:22.653Z,1.96
2022-12-03T16:56:49.619Z,1.83
2022-12-03T16:59:16.593Z,1.93
2022-12-03T17:01:43.694Z,1.88
2022-12-03T17:04:10.777Z,1.76
2022-12-03T17:06:37.880Z,1.85
2022-12-03T17:09:05.033Z,1.87
2022-12-03T17:11:31.994Z,2.09
2022-12-03T17:13:59.052Z,2.06
2022-12-03T17:16:26.041Z,1.97
2022-12-03T17:18:53.005Z,1.97
2022-12-03T17:21:20.015Z,1.96
2022-12-03T17:23:48.964Z,1.91
2022-12-03T17:26:15.946Z,1.90
2022-12-03T17:28:43.063Z,1.97
2022-12-03T17:31:10.360Z,2.04
2022-12-03T17:33:37.522Z,2.08
2022-12-03T17:36:05.173Z,2.08
2022-12-03T17:38:38.818Z,1.97
2022-12-03T17:41:07.514Z,1.98
2022-12-03T17:43:34.500Z,1.91
2022-12-03T17:46:01.534Z,2.08
2022-12-03T17:48:31.108Z,2.03
2022-12-03T17:50:58.225Z,2.15
2022-12-03T17:53:25.400Z,2.12
2022-12-03T17:55:52.344Z,2.08
2022-12-03T17:58:19.809Z,2.10
2022-12-03T18:00:46.882Z,2.11
2022-12-03T18:03:13.846Z,2.10
2022-12-03T18:05:41.702Z,2.23
2022-12-03T18:08:08.741Z,2.05
2022-12-03T18:10:35.878Z,2.10
2022-12-03T18:13:02.922Z,2.15
2022-12-03T18:15:30.885Z,2.13
2022-12-03T18:17:57.976Z,2.16
2022-12-03T18:20:24.983Z,2.23
2022-12-03T18:22:52.080Z,2.15
2022-12-03T18:25:19.445Z,1.96
2022-12-03T18:27:46.957Z,1.99
2022-12-03T18:30:14.141Z,1.98
2022-12-03T18:32:41.103Z,1.92
2022-12-03T18:35:08.413Z,1.86
2022-12-03T18:37:35.628Z,1.92
2022-12-03T18:40:12.486Z,1.67
2022-12-03T18:42:40.205Z,1.82
2022-12-03T18:45:11.291Z,1.74
2022-12-03T18:47:38.259Z,1.93
2022-12-03T18:50:07.248Z,1.92
2022-12-03T18:52:34.367Z,1.95
2022-12-03T18:55:01.734Z,1.93
2022-12-03T18:57:28.680Z,1.92
2022-12-03T18:59:55.949Z,1.87
2022-12-03T19:03:02.045Z,1.93
2022-12-03T19:05:10.485Z,2.02
2022-12-03T19:07:37.738Z,2.04
2022-12-03T19:10:05.795Z,1.92
2022-12-03T19:12:33.758Z,1.84
2022-12-03T19:15:00.928Z,2.04
2022-12-03T19:17:27.980Z,2.00
2022-12-03T19:19:55.618Z,2.06
2022-12-03T19:22:23.299Z,2.08
2022-12-03T19:24:50.724Z,2.09
2022-12-03T19:27:17.967Z,2.04
2022-12-03T19:29:48.273Z,2.04
2022-12-03T19:32:15.271Z,2.06
2022-12-03T19:34:42.660Z,2.02
2022-12-03T19:37:09.597Z,2.05
2022-12-03T19:39:36.623Z,2.06
2022-12-03T19:42:03.831Z,2.09
2022-12-03T19:44:31.029Z,2.00
2022-12-03T19:46:58.127Z,1.90
2022-12-03T19:49:25.316Z,1.95
2022-12-03T19:51:52.392Z,2.11
2022-12-03T19:54:19.609Z,2.03
2022-12-03T19:56:46.798Z,2.08
2022-12-03T19:59:14.376Z,2.17
2022-12-03T20:01:43.233Z,2.14
2022-12-03T20:04:12.134Z,2.18
2022-12-03T20:06:39.982Z,2.22
2022-12-03T20:09:13.838Z,2.23
2022-12-03T20:11:41.964Z,2.45
2022-12-03T20:14:14.935Z,2.21
2022-12-03T20:16:42.394Z,2.22
2022-12-03T20:19:12.770Z,2.22
2022-12-03T20:21:40.968Z,2.22
2022-12-03T20:24:11.405Z,2.21
2022-12-03T20:26:38.563Z,2.17
2022-12-03T20:29:05.549Z,2.17
2022-12-03T20:31:32.952Z,2.12
2022-12-03T20:34:02.523Z,2.11
2022-12-03T20:36:31.694Z,2.11
2022-12-03T20:39:05.800Z,2.01
2022-12-03T20:41:36.024Z,2.13
2022-12-03T20:44:03.776Z,2.06
2022-12-03T20:46:31.643Z,2.11
2022-12-03T20:48:59.633Z,2.18
2022-12-03T20:51:30.147Z,2.11
2022-12-03T20:53:59.169Z,2.22
2022-12-03T20:56:31.685Z,2.27
2022-12-03T20:59:06.442Z,2.19
2022-12-03T21:01:36.077Z,2.29
2022-12-03T21:04:04.929Z,2.27
2022-12-03T21:06:34.892Z,2.27
2022-12-03T21:09:05.131Z,2.28
2022-12-03T21:11:33.957Z,2.22
2022-12-03T21:14:00.943Z,2.31
2022-12-03T21:17:05.951Z,2.24
2022-12-03T21:19:22.386Z,2.22
2022-12-03T21:21:49.506Z,2.25
2022-12-03T21:24:16.557Z,2.19
2022-12-03T21:26:43.453Z,2.24
2022-12-03T21:29:10.476Z,2.25
2022-12-03T21:31:39.768Z,2.26
2022-12-03T21:34:08.451Z,2.28
2022-12-03T21:36:35.711Z,2.23
2022-12-03T21:39:02.657Z,2.33
2022-12-03T21:41:29.633Z,2.37
2022-12-03T21:43:56.539Z,2.30
2022-12-03T21:47:09.407Z,2.34
2022-12-03T21:49:10.455Z,2.28
2022-12-03T21:51:37.814Z,2.31
2022-12-03T21:54:04.926Z,2.27
2022-12-03T21:56:33.020Z,2.33
2022-12-03T21:59:00.002Z,2.20
2022-12-03T22:01:27.347Z,2.35
2022-12-03T22:03:54.382Z,2.23
2022-12-03T22:06:21.945Z,2.23
2022-12-03T22:08:49.341Z,2.33
2022-12-03T22:11:23.358Z,2.45
2022-12-03T22:13:50.826Z,2.39
2022-12-03T22:16:20.898Z,2.47
2022-12-03T22:18:48.267Z,2.48
2022-12-03T22:21:20.588Z,2.41
2022-12-03T22:23:47.846Z,2.39
2022-12-03T22:26:17.873Z,2.47
2022-12-03T22:28:47.391Z,2.40
2022-12-03T22:31:16.077Z,2.30
2022-12-03T22:33:43.741Z,2.47
2022-12-03T22:36:20.115Z,2.43
2022-12-03T22:38:49.674Z,2.21
2022-12-03T22:41:17.770Z,2.25
2022-12-03T22:43:45.957Z,2.24
2022-12-03T22:46:13.606Z,2.10
2022-12-03T22:48:46.336Z,2.06
2022-12-03T22:51:22.937Z,1.99
2022-12-03T22:53:59.587Z,2.02
2022-12-03T22:56:28.523Z,2.06
2022-12-03T22:58:55.691Z,2.10
2022-12-03T23:01:26.675Z,2.10
2022-12-03T23:03:54.432Z,2.10
2022-12-03T23:06:23.073Z,1.97
2022-12-03T23:08:50.548Z,2.01
2022-12-03T23:11:18.323Z,2.02
2022-12-03T23:13:45.462Z,2.12
2022-12-03T23:16:23.587Z,2.11
2022-12-03T23:18:50.962Z,2.06
2022-12-03T23:21:29.016Z,2.09
2022-12-03T23:24:01.435Z,2.21
2022-12-03T23:26:29.076Z,2.08
2022-12-03T23:28:56.716Z,2.01
2022-12-03T23:31:31.676Z,1.98
2022-12-03T23:33:59.822Z,1.93
2022-12-03T23:36:30.061Z,2.05
2022-12-03T23:38:57.082Z,1.98
2022-12-03T23:41:24.782Z,1.82
2022-12-03T23:43:52.113Z,1.94
2022-12-03T23:46:26.174Z,1.64
2022-12-03T23:48:53.593Z,1.64
2022-12-03T23:51:24.326Z,1.66
2022-12-03T23:53:53.198Z,1.79
2022-12-03T23:56:25.513Z,1.92
2022-12-03T23:58:52.559Z,1.86
